Thunder radar more information blitzortung!


Radar de pluja more information rain snow radar


Visita la nostra xarxa de llocs de meteo:

Template documentation
and downloads

And another site



No particular awareness of the weather is required.    There are no Weather-warnings

Pagina Historial Weather Underground text

Diari Resum Agost 10, 2017 Unitats:  Imperial    Mètric   Tant
« Previous Dia
SegĂźent Dia »
Diari Setmana Mensual Anual Personalitzada
  Maxima: Minima: Media:
Temperatura: TemperatureC °F 13.9 °F 22.3 °F
Punt de rosada: DewpointC °F 6.2 °F 10.3 °F
Humitat: Humidity % 27 % 49 %
Wind Speed: WindSpeedKMH mph 0.0 mph 6.7 mph
RĂ fegues de vent: WindSpeedGustKMH mph - -
Vent:- - SSW
Pression baro: PressurehPa in 1015.8 in -
Precipitacions: 0.0 in    
Historical Graphs
 
 
Dades de taula per Agost 10, 2017
Temps Temperatura Punt de rosada Pression baro Vent Wind Speed RĂ fegues de vent Humitat Rainfall Rate (Hourly)
TemperatureC °F DewpointC °F PressurehPa in Calm     Humidity % HourlyPrecipMM in
00:00 14.9 °F 12.2 °F 1017.8 in WSW 1.6 mph 3.2 mph 84 % 0.0 in
00:01 16.3 °F 14.3 °F 1017.8 in NE 1.9 mph   88 % 7.1 in
00:06 16.3 °F 14.1 °F 1017.8 in SW 3.7 mph 3.7 mph 87 % 7.1 in
00:10 14.7 °F 12.0 °F 1017.8 in SW 1.6 mph 4.8 mph 84 % 0.0 in
00:20 14.5 °F 11.8 °F 1018.8 in WSW 1.6 mph 4.8 mph 84 % 0.0 in
00:30 14.4 °F 11.6 °F 1018.8 in WSW 3.2 mph 4.8 mph 83 % 0.0 in
00:40 14.3 °F 11.4 °F 1017.8 in WSW 1.6 mph 4.8 mph 83 % 0.0 in
00:50 14.2 °F 11.0 °F 1017.8 in WSW 3.2 mph 6.4 mph 81 % 0.0 in
01:00 14.3 °F 10.9 °F 1017.8 in WSW 4.8 mph 6.4 mph 80 % 0.0 in
01:10 14.4 °F 10.8 °F 1016.8 in WSW 4.8 mph 6.4 mph 79 % 0.0 in
01:20 14.4 °F 10.6 °F 1017.8 in WSW 3.2 mph 4.8 mph 78 % 0.0 in
01:30 14.3 °F 10.5 °F 1017.8 in West 1.6 mph 3.2 mph 78 % 0.0 in
01:40 14.3 °F 10.3 °F 1017.8 in West 3.2 mph 6.4 mph 77 % 0.0 in
01:50 14.2 °F 10.2 °F 1017.8 in West 3.2 mph 3.2 mph 77 % 0.0 in
02:00 14.1 °F 9.9 °F 1017.8 in WNW 1.6 mph 3.2 mph 76 % 0.0 in
02:10 14.0 °F 9.8 °F 1016.8 in WNW 3.2 mph 4.8 mph 76 % 0.0 in
02:20 14.0 °F 9.8 °F 1017.8 in West 1.6 mph 6.4 mph 76 % 0.0 in
02:30 14.0 °F 9.8 °F 1017.8 in WSW 3.2 mph 4.8 mph 76 % 0.0 in
02:40 13.9 °F 9.7 °F 1017.8 in WSW 3.2 mph 8.0 mph 76 % 0.0 in
02:50 13.9 °F 9.6 °F 1017.8 in West 1.6 mph 4.8 mph 75 % 0.0 in
03:00 13.9 °F 9.6 °F 1017.8 in West 3.2 mph 4.8 mph 75 % 0.0 in
03:10 13.9 °F 9.7 °F 1018.8 in Calm   4.8 mph 76 % 0.0 in
03:20 14.2 °F 10.0 °F 1018.8 in West 3.2 mph 4.8 mph 76 % 0.0 in
03:30 14.3 °F 10.1 °F 1018.8 in Calm   4.8 mph 76 % 0.0 in
03:40 14.4 °F 10.4 °F 1019.9 in SW 1.6 mph 3.2 mph 77 % 0.0 in
03:50 14.4 °F 10.4 °F 1019.9 in SW 1.6 mph 4.8 mph 77 % 0.0 in
04:00 14.6 °F 10.4 °F 1019.9 in WSW 3.2 mph 4.8 mph 76 % 0.0 in
04:10 14.7 °F 10.5 °F 1019.9 in WSW 1.6 mph 3.2 mph 76 % 0.0 in
04:20 15.0 °F 10.8 °F 1020.9 in West 1.6 mph 3.2 mph 76 % 0.0 in
04:30 15.3 °F 11.1 °F 1020.9 in NW 1.6 mph 4.8 mph 76 % 0.0 in
04:40 16.4 °F 11.9 °F 1019.9 in North 1.6 mph 4.8 mph 75 % 0.0 in
04:50 16.8 °F 12.1 °F 1019.9 in NNE 1.6 mph 4.8 mph 74 % 0.0 in
05:00 17.3 °F 12.4 °F 1019.9 in ENE 1.6 mph 6.4 mph 73 % 0.0 in
05:10 17.3 °F 12.0 °F 1019.9 in SSW 3.2 mph 9.7 mph 71 % 0.0 in
10:14 18.0 °F 12.4 °F 1019.9 in SW 5.6 mph 5.6 mph 70 % 0.0 in
10:15 18.0 °F 12.4 °F 1019.9 in WSW 5.6 mph 5.6 mph 70 % 0.0 in
10:20 18.6 °F 12.8 °F 1019.9 in East 3.9 mph 3.9 mph 69 % 0.0 in
10:25 18.4 °F 12.4 °F 1019.9 in ENE 7.4 mph 7.4 mph 68 % 0.0 in
10:30 18.5 °F 12.7 °F 1019.9 in NNW 3.7 mph 3.7 mph 69 % 0.0 in
10:35 18.6 °F 12.6 °F 1019.9 in NW 3.7 mph 3.7 mph 68 % 0.0 in
10:40 18.5 °F 12.0 °F 1019.9 in NNE 5.6 mph 5.6 mph 66 % 0.0 in
10:45 18.7 °F 12.4 °F 1019.9 in North 7.4 mph 7.4 mph 67 % 0.0 in
10:50 19.2 °F 12.7 °F 1019.9 in ENE 5.6 mph 5.6 mph 66 % 0.0 in
10:55 19.2 °F 12.4 °F 1019.9 in NNW 5.6 mph 5.6 mph 65 % 0.0 in
11:00 19.2 °F 12.7 °F 1019.9 in SW 8.7 mph 8.7 mph 66 % 0.0 in
11:05 19.3 °F 12.6 °F 1019.9 in SSW 1.9 mph   65 % 0.0 in
11:10 19.7 °F 12.7 °F 1019.9 in NE 3.9 mph 3.9 mph 64 % 0.0 in
11:15 19.8 °F 12.6 °F 1019.9 in ESE 3.7 mph 3.7 mph 63 % 0.0 in
11:20 20.6 °F 13.3 °F 1019.9 in NE 5.6 mph 5.6 mph 63 % 0.0 in
11:25 20.6 °F 13.1 °F 1019.9 in ESE 3.7 mph 3.7 mph 62 % 0.0 in
11:30 21.4 °F 13.3 °F 1019.9 in ESE 3.7 mph 3.7 mph 60 % 0.0 in
11:35 21.2 °F 13.1 °F 1019.9 in West 5.6 mph 5.6 mph 60 % 0.0 in
11:40 21.2 °F 13.1 °F 1019.9 in SW 5.6 mph 5.6 mph 60 % 0.0 in
11:45 21.7 °F 13.6 °F 1018.8 in WSW 5.6 mph 5.6 mph 60 % 0.0 in
11:50 21.8 °F 13.4 °F 1018.8 in NE 5.6 mph 5.6 mph 59 % 0.0 in
11:55 21.7 °F 13.1 °F 1018.8 in NW 5.6 mph 5.6 mph 58 % 0.0 in
12:00 21.5 °F 12.9 °F 1018.8 in ENE 7.4 mph 7.4 mph 58 % 0.0 in
12:05 21.3 °F 12.4 °F 1018.8 in WNW 11.1 mph 11.1 mph 57 % 0.0 in
12:10 21.5 °F 12.6 °F 1018.8 in NNE 10.0 mph 10.0 mph 57 % 0.0 in
12:15 21.3 °F 11.9 °F 1018.8 in North 6.4 mph 6.4 mph 55 % 0.0 in
12:20 22.0 °F 12.6 °F 1018.8 in SW 3.7 mph 3.7 mph 55 % 0.0 in
12:25 22.4 °F 12.9 °F 1018.8 in East 2.3 mph 2.3 mph 55 % 0.0 in
12:30 22.7 °F 12.9 °F 1018.8 in ENE 7.4 mph 7.4 mph 54 % 0.0 in
12:35 22.9 °F 13.1 °F 1018.8 in East 3.9 mph 3.9 mph 54 % 0.0 in
12:40 23.2 °F 13.1 °F 1018.8 in NW 6.1 mph 6.1 mph 53 % 0.0 in
12:45 23.2 °F 13.1 °F 1018.8 in SSW 3.7 mph 3.9 mph 53 % 0.0 in
12:50 23.7 °F 13.3 °F 1018.8 in SSW 7.6 mph 7.6 mph 52 % 0.0 in
12:55 23.7 °F 12.7 °F 1018.8 in West 9.3 mph 9.3 mph 50 % 0.0 in
13:00 23.8 °F 12.4 °F 1018.8 in West 3.7 mph 4.7 mph 49 % 0.0 in
13:05 24.4 °F 13.0 °F 1018.8 in SW 10.0 mph 10.0 mph 49 % 0.0 in
13:10 24.3 °F 12.6 °F 1018.8 in SW 9.3 mph 9.3 mph 48 % 0.0 in
13:15 24.8 °F 13.1 °F 1018.8 in SW 9.0 mph 9.0 mph 48 % 0.0 in
13:20 25.0 °F 12.9 °F 1018.8 in West 5.6 mph 5.6 mph 47 % 0.0 in
13:25 25.0 °F 12.2 °F 1018.8 in WSW 5.6 mph 5.6 mph 45 % 0.0 in
13:30 25.2 °F 12.4 °F 1018.8 in WNW 14.8 mph 14.8 mph 45 % 0.0 in
13:35 25.6 °F 12.8 °F 1018.8 in West 7.4 mph 7.4 mph 45 % 0.0 in
13:40 25.5 °F 12.3 °F 1018.8 in SW 13.0 mph 13.0 mph 44 % 0.0 in
13:45 25.9 °F 12.3 °F 1017.8 in West 9.3 mph 9.3 mph 43 % 0.0 in
13:50 25.5 °F 11.3 °F 1017.8 in WSW 11.1 mph 11.1 mph 41 % 0.0 in
13:55 25.6 °F 11.4 °F 1017.8 in SSW 9.3 mph 9.3 mph 41 % 0.0 in
14:00 25.9 °F 11.3 °F 1017.8 in South 9.3 mph 9.3 mph 40 % 0.0 in
14:05 25.8 °F 10.8 °F 1017.8 in SE 9.3 mph 9.3 mph 39 % 0.0 in
14:10 25.7 °F 10.3 °F 1017.8 in West 13.0 mph 13.0 mph 38 % 0.0 in
14:15 25.8 °F 10.0 °F 1017.8 in SSW 9.3 mph 9.3 mph 37 % 0.0 in
14:20 26.0 °F 9.8 °F 1017.8 in SSW 14.8 mph 14.8 mph 36 % 0.0 in
14:25 26.3 °F 10.4 °F 1017.8 in WSW 7.9 mph 7.9 mph 37 % 0.0 in
14:30 26.2 °F 9.5 °F 1017.8 in WSW 9.3 mph 9.3 mph 35 % 0.0 in
14:35 26.4 °F 9.7 °F 1017.8 in WSW 9.3 mph 9.3 mph 35 % 0.0 in
14:40 25.9 °F 8.4 °F 1017.8 in SW 16.7 mph 16.7 mph 33 % 0.0 in
14:45 26.3 °F 9.2 °F 1017.8 in SW 7.4 mph 7.4 mph 34 % 0.0 in
14:50 26.4 °F 8.8 °F 1017.8 in SW 5.6 mph 5.6 mph 33 % 0.0 in
14:55 26.4 °F 8.8 °F 1017.8 in NNW 11.1 mph 11.1 mph 33 % 0.0 in
15:00 26.7 °F 9.6 °F 1017.8 in West 11.1 mph 11.1 mph 34 % 0.0 in
15:05 27.0 °F 9.3 °F 1017.8 in NNW 7.4 mph 7.4 mph 33 % 0.0 in
15:10 26.7 °F 9.1 °F 1017.8 in SW 5.6 mph 5.6 mph 33 % 0.0 in
15:15 26.4 °F 9.3 °F 1017.8 in WSW 11.1 mph 11.1 mph 34 % 0.0 in
15:20 27.0 °F 9.3 °F 1017.8 in SSW 9.7 mph 9.7 mph 33 % 0.0 in
15:25 27.1 °F 9.0 °F 1017.8 in NNW 5.6 mph 5.6 mph 32 % 0.0 in
15:30 27.2 °F 9.1 °F 1017.8 in SE 5.0 mph 5.0 mph 32 % 0.0 in
15:35 27.6 °F 9.9 °F 1017.8 in West 7.4 mph 7.4 mph 33 % 0.0 in
15:40 27.7 °F 9.5 °F 1017.8 in SW 9.3 mph 9.3 mph 32 % 0.0 in
15:45 27.3 °F 9.2 °F 1016.8 in WSW 7.4 mph 7.4 mph 32 % 0.0 in
15:50 27.7 °F 9.5 °F 1016.8 in ENE 3.7 mph 4.2 mph 32 % 0.0 in
15:55 27.7 °F 9.5 °F 1016.8 in SSW 11.9 mph 11.9 mph 32 % 0.0 in
16:00 28.1 °F 8.9 °F 1017.8 in SW 11.1 mph 11.1 mph 30 % 0.0 in
16:05 27.9 °F 8.7 °F 1017.8 in SW 7.4 mph 7.4 mph 30 % 0.0 in
16:10 28.0 °F 8.8 °F 1017.8 in SW 9.3 mph 9.3 mph 30 % 0.0 in
16:15 28.2 °F 9.0 °F 1017.8 in SW 9.3 mph 9.3 mph 30 % 0.0 in
16:20 28.5 °F 8.7 °F 1017.8 in South 9.3 mph 9.3 mph 29 % 0.0 in
16:23 28.5 °F 9.2 °F 1017.8 in SW 11.1 mph 11.1 mph 30 % 0.0 in
16:27 28.2 °F 8.5 °F 1017.8 in NE 7.4 mph 7.4 mph 29 % 0.0 in
16:33 27.7 °F 8.1 °F 1017.8 in SW 7.4 mph 7.4 mph 29 % 0.0 in
16:38 28.2 °F 8.5 °F 1017.8 in West 7.4 mph 7.4 mph 29 % 0.0 in
16:43 28.4 °F 8.7 °F 1017.8 in SW 6.4 mph 6.4 mph 29 % 0.0 in
16:47 28.3 °F 8.1 °F 1016.8 in WSW 9.3 mph 9.3 mph 28 % 0.0 in
16:52 28.7 °F 8.9 °F 1016.8 in West 7.4 mph 7.4 mph 29 % 0.0 in
16:57 28.7 °F 8.9 °F 1016.8 in SW 5.6 mph 5.6 mph 29 % 0.0 in
17:02 28.7 °F 8.4 °F 1016.8 in West 7.4 mph 7.4 mph 28 % 0.0 in
17:08 28.8 °F 8.4 °F 1016.8 in WNW 7.4 mph 7.4 mph 28 % 0.0 in
17:13 28.7 °F 8.4 °F 1016.8 in WSW 7.4 mph 7.4 mph 28 % 0.0 in
17:18 28.5 °F 8.2 °F 1016.8 in SW 5.6 mph 6.1 mph 28 % 0.0 in
17:22 28.5 °F 8.2 °F 1016.8 in West 13.0 mph 13.0 mph 28 % 0.0 in
17:27 28.7 °F 8.4 °F 1016.8 in SW 5.6 mph 5.6 mph 28 % 0.0 in
17:32 29.1 °F 8.2 °F 1015.8 in WSW 11.1 mph 11.1 mph 27 % 0.0 in
17:38 28.8 °F 7.9 °F 1015.8 in West 9.3 mph 9.3 mph 27 % 0.0 in
17:43 28.9 °F 8.6 °F 1015.8 in SW 10.0 mph 10.0 mph 28 % 0.0 in
17:48 28.5 °F 7.7 °F 1015.8 in SSW 11.1 mph 11.1 mph 27 % 0.0 in
17:53 28.6 °F 7.8 °F 1015.8 in South 9.3 mph 9.3 mph 27 % 0.0 in
17:58 27.9 °F 7.7 °F 1015.8 in WSW 22.2 mph 22.2 mph 28 % 0.0 in
18:03 27.8 °F 8.6 °F 1015.8 in SSW 7.4 mph 7.4 mph 30 % 0.0 in
18:08 27.8 °F 8.6 °F 1015.8 in SSW 14.8 mph 14.8 mph 30 % 0.0 in
18:13 27.3 °F 8.7 °F 1015.8 in SW 13.0 mph 13.0 mph 31 % 0.0 in
18:18 26.6 °F 8.1 °F 1015.8 in SW 24.1 mph 24.1 mph 31 % 0.0 in
18:23 26.4 °F 8.4 °F 1015.8 in SW 18.3 mph 18.3 mph 32 % 0.0 in
18:28 26.1 °F 8.1 °F 1015.8 in South 16.7 mph 16.7 mph 32 % 0.0 in
18:33 26.0 °F 8.5 °F 1015.8 in SSW 14.8 mph 14.8 mph 33 % 0.0 in
18:38 26.0 °F 8.9 °F 1015.8 in SW 16.7 mph 16.7 mph 34 % 0.0 in
18:43 25.9 °F 8.8 °F 1015.8 in SSW 14.8 mph 14.8 mph 34 % 0.0 in
18:48 25.7 °F 8.7 °F 1015.8 in WSW 14.8 mph 14.8 mph 34 % 0.0 in
18:53 25.7 °F 9.1 °F 1015.8 in SW 14.8 mph 14.8 mph 35 % 0.0 in
18:58 25.3 °F 8.7 °F 1015.8 in SW 13.0 mph 13.0 mph 35 % 0.0 in
19:03 25.5 °F 9.3 °F 1015.8 in SW 9.3 mph 9.3 mph 36 % 0.0 in
19:08 25.3 °F 9.2 °F 1015.8 in SW 16.7 mph 16.7 mph 36 % 0.0 in
19:13 25.2 °F 9.1 °F 1015.8 in SW 20.4 mph 20.4 mph 36 % 0.0 in
19:18 25.2 °F 9.1 °F 1015.8 in SSW 14.8 mph 14.8 mph 36 % 0.0 in
19:23 25.1 °F 9.0 °F 1015.8 in South 14.8 mph 14.8 mph 36 % 0.0 in
19:28 25.1 °F 9.0 °F 1015.8 in SW 15.6 mph 15.6 mph 36 % 0.0 in
19:33 25.1 °F 9.4 °F 1015.8 in SSW 13.0 mph 13.0 mph 37 % 0.0 in
19:38 24.9 °F 9.6 °F 1015.8 in SW 14.8 mph 14.8 mph 38 % 0.0 in
19:43 24.7 °F 9.4 °F 1015.8 in WSW 14.8 mph 14.8 mph 38 % 0.0 in
19:48 24.6 °F 9.3 °F 1015.8 in West 19.8 mph 19.8 mph 38 % 0.0 in
19:53 24.5 °F 9.2 °F 1015.8 in West 9.5 mph 9.5 mph 38 % 0.0 in
19:58 24.5 °F 9.6 °F 1015.8 in SSW 9.3 mph 9.3 mph 39 % 0.0 in
20:03 24.4 °F 9.6 °F 1015.8 in WSW 9.3 mph 9.3 mph 39 % 0.0 in
20:08 24.3 °F 9.8 °F 1015.8 in WSW 13.7 mph 13.7 mph 40 % 0.0 in
20:13 24.2 °F 9.7 °F 1015.8 in SW 7.4 mph 7.4 mph 40 % 0.0 in
20:18 24.0 °F 9.9 °F 1015.8 in SW 9.3 mph 9.3 mph 41 % 0.0 in
20:23 24.0 °F 9.9 °F 1015.8 in SW 9.0 mph 9.0 mph 41 % 0.0 in
20:28 23.9 °F 10.2 °F 1015.8 in SSW 5.6 mph 5.6 mph 42 % 0.0 in
20:33 23.7 °F 10.0 °F 1016.8 in SW 7.4 mph 7.4 mph 42 % 0.0 in
20:38 23.6 °F 10.3 °F 1016.8 in SW 5.6 mph 5.8 mph 43 % 0.0 in
20:40 19.7 °F 8.4 °F 1018.8 in WSW 4.8 mph 4.8 mph 48 % 0.0 in
20:43 23.6 °F 10.3 °F 1016.8 in WSW 9.3 mph 9.3 mph 43 % 0.0 in
20:48 23.4 °F 10.4 °F 1016.8 in SW 7.4 mph 7.4 mph 44 % 0.0 in
20:50 19.5 °F 8.2 °F 1018.8 in WSW 3.2 mph 8.0 mph 48 % 0.0 in
20:53 23.3 °F 10.3 °F 1016.8 in WNW 5.6 mph 5.6 mph 44 % 0.0 in
20:54 23.3 °F 10.3 °F 1016.8 in WSW 3.7 mph 3.7 mph 44 % 0.0 in
20:59 23.2 °F 10.6 °F 1016.8 in WSW 3.7 mph 3.9 mph 45 % 0.0 in
21:00 19.3 °F 7.7 °F 1018.8 in West 1.6 mph 4.8 mph 47 % 0.0 in
21:04 23.1 °F 10.5 °F 1017.8 in West 3.7 mph 3.7 mph 45 % 0.0 in
21:09 23.0 °F 10.8 °F 1017.8 in West 2.6 mph 2.6 mph 46 % 0.0 in
21:10 19.1 °F 7.5 °F 1018.8 in West 4.8 mph 4.8 mph 47 % 0.0 in
21:14 22.9 °F 11.0 °F 1017.8 in West 1.9 mph   47 % 0.0 in
21:19 22.8 °F 10.9 °F 1016.8 in NNE 3.7 mph 3.7 mph 47 % 0.0 in
21:20 18.9 °F 7.7 °F 1018.8 in WSW 3.2 mph 4.8 mph 48 % 0.0 in
21:24 22.6 °F 10.7 °F 1016.8 in NNE 1.9 mph 1.9 mph 47 % 0.0 in
21:29 22.6 °F 10.7 °F 1017.8 in NNE 2.6 mph 2.6 mph 47 % 0.0 in
21:30 18.6 °F 7.4 °F 1018.8 in West 1.6 mph 6.4 mph 48 % 0.0 in
21:34 22.5 °F 10.6 °F 1017.8 in NNE 5.6 mph 5.6 mph 47 % 0.0 in
21:39 22.4 °F 10.8 °F 1017.8 in NNE 5.6 mph 5.6 mph 48 % 0.0 in
21:40 18.5 °F 7.3 °F 1018.8 in West 3.2 mph 4.8 mph 48 % 0.0 in
21:44 22.4 °F 10.8 °F 1017.8 in East 3.7 mph 3.7 mph 48 % 0.0 in
21:49 22.5 °F 10.9 °F 1017.8 in WNW 3.7 mph 3.7 mph 48 % 0.0 in
21:50 18.4 °F 7.2 °F 1018.8 in West 3.2 mph 8.0 mph 48 % 0.0 in
21:54 22.4 °F 10.8 °F 1017.8 in ENE 1.9 mph   48 % 0.0 in
21:59 22.3 °F 10.8 °F 1017.8 in NNE 3.7 mph 3.7 mph 48 % 0.0 in
22:00 18.2 °F 7.0 °F 1018.8 in West 3.2 mph 4.8 mph 48 % 0.0 in
22:04 22.2 °F 10.7 °F 1017.8 in West 1.9 mph   48 % 0.0 in
22:09 22.2 °F 11.0 °F 1017.8 in ESE 5.6 mph 5.6 mph 49 % 0.0 in
22:10 18.0 °F 6.8 °F 1018.8 in WSW 1.6 mph 4.8 mph 48 % 0.0 in
22:14 22.3 °F 10.8 °F 1017.8 in Calm     48 % 0.0 in
22:19 22.2 °F 11.0 °F 1017.8 in NNE 7.9 mph 7.9 mph 49 % 0.0 in
22:20 17.8 °F 6.6 °F 1018.8 in West 1.6 mph 3.2 mph 48 % 0.0 in
22:24 22.2 °F 11.0 °F 1017.8 in NE 3.9 mph 3.9 mph 49 % 0.0 in
22:29 22.1 °F 10.9 °F 1017.8 in WSW 3.9 mph 4.2 mph 49 % 0.0 in
22:30 17.4 °F 6.6 °F 1018.8 in West 1.6 mph 3.2 mph 49 % 0.0 in
22:34 22.0 °F 11.1 °F 1017.8 in ENE 6.4 mph 6.4 mph 50 % 0.0 in
22:39 22.0 °F 10.8 °F 1017.8 in ENE 3.9 mph 3.9 mph 49 % 0.0 in
22:40 17.0 °F 6.2 °F 1018.8 in Calm   3.2 mph 49 % 0.0 in
22:44 22.1 °F 11.2 °F 1018.8 in ESE 4.7 mph 4.7 mph 50 % 0.0 in
22:50 22.1 °F 11.2 °F 1018.8 in NW 5.6 mph 5.6 mph 50 % 0.0 in
22:55 22.1 °F 11.2 °F 1018.8 in NE 9.3 mph 9.3 mph 50 % 0.0 in
23:00 22.1 °F 10.9 °F 1018.8 in SE 5.0 mph 5.0 mph 49 % 0.0 in
23:05 22.1 °F 11.2 °F 1018.8 in ENE 3.7 mph 3.7 mph 50 % 0.0 in
23:10 22.0 °F 11.1 °F 1018.8 in ENE 3.2 mph 3.2 mph 50 % 0.0 in
23:15 21.9 °F 11.3 °F 1018.8 in NE 3.7 mph 3.7 mph 51 % 0.0 in
23:20 21.8 °F 11.2 °F 1018.8 in ESE 2.6 mph 2.6 mph 51 % 0.0 in
23:25 21.7 °F 11.4 °F 1018.8 in ENE 5.6 mph 5.6 mph 52 % 0.0 in
23:30 21.6 °F 11.3 °F 1018.8 in NE 3.7 mph 3.7 mph 52 % 0.0 in
23:35 21.6 °F 11.3 °F 1018.8 in NNE 3.7 mph 3.7 mph 52 % 0.0 in
23:40 21.5 °F 11.5 °F 1018.8 in Calm     53 % 0.0 in
23:45 21.5 °F 11.5 °F 1018.8 in NW 2.6 mph 2.6 mph 53 % 0.0 in
23:50 21.5 °F 11.5 °F 1018.8 in North 3.9 mph 3.9 mph 53 % 0.0 in
23:55 21.4 °F 10.8 °F 1018.8 in ENE 1.9 mph   51 % 0.0 in
Meteo Sesrovires
Elogis d' Weather Underground - 1.5 mb

Guio original per  Jim McMurry - jmcmurry@mwt.net Adaptat per a la plantilla per  Wim van der Kuil - Leuven-Template.eu

Trobareu la nostra informacio del temps tambe a:

Weather Underground

AWEKAS